Time,TemperatureF,DewpointF,PressureIn,WindDirection,WindDirectionDegrees,WindSpeedMPH,WindSpeedGustMPH,Humidity,HourlyPrecipIn,Conditions,Clouds,dailyrainin,SoftwareType,DateUTC
2013-05-15 00:01:00,54.5,28.1,0.00,NNE,20,0.0,0.0,36,0.00,,---,0.00,VWS V14.01,2013-05-15 04:01:00,
2013-05-15 00:03:00,54.5,28.1,0.00,NNE,20,0.0,0.0,36,0.00,,---,0.00,VWS V14.01,2013-05-15 04:03:00,
2013-05-15 00:06:00,54.5,28.1,0.00,NNW,348,0.0,0.0,36,0.00,,---,0.00,VWS V14.01,2013-05-15 04:06:00,
2013-05-15 00:09:00,54.9,28.4,0.00,NNW,348,0.0,0.0,36,0.00,,---,0.00,VWS V14.01,2013-05-15 04:09:00,
2013-05-15 00:12:00,54.9,28.4,0.00,ESE,106,2.7,2.7,36,0.00,,---,0.00,VWS V14.01,2013-05-15 04:12:00,
2013-05-15 00:17:00,54.7,28.3,0.00,East,79,0.0,0.0,36,0.00,,---,0.00,VWS V14.01,2013-05-15 04:17:00,
2013-05-15 00:22:00,54.5,28.1,0.00,East,79,0.0,0.0,36,0.00,,---,0.00,VWS V14.01,2013-05-15 04:22:00,
2013-05-15 00:27:00,54.7,28.3,0.00,NW,317,0.0,0.0,36,0.00,,---,0.00,VWS V14.01,2013-05-15 04:27:00,
2013-05-15 00:32:00,55.0,28.6,0.00,SSW,210,0.0,0.0,36,0.00,,---,0.00,VWS V14.01,2013-05-15 04:32:00,
2013-05-15 00:37:00,55.2,28.8,0.00,NNE,21,0.0,2.7,36,0.00,,---,0.00,VWS V14.01,2013-05-15 04:37:00,
2013-05-15 00:43:00,55.4,28.2,0.00,SSE,153,0.0,0.0,35,0.00,,---,0.00,VWS V14.01,2013-05-15 04:43:00,
2013-05-15 00:48:00,55.4,28.2,0.00,SW,214,0.0,0.0,35,0.00,,---,0.00,VWS V14.01,2013-05-15 04:48:00,
2013-05-15 00:54:00,55.6,28.4,0.00,SW,220,0.0,0.0,35,0.00,,---,0.00,VWS V14.01,2013-05-15 04:54:00,
2013-05-15 00:59:00,55.8,28.5,0.00,ESE,123,0.0,0.0,35,0.00,,---,0.00,VWS V14.01,2013-05-15 04:59:00,
2013-05-15 01:04:00,55.6,28.4,0.00,NNW,340,0.0,0.0,35,0.00,,---,0.00,VWS V14.01,2013-05-15 05:04:00,
2013-05-15 01:10:00,55.6,28.4,0.00,NNW,337,0.0,0.0,35,0.00,,---,0.00,VWS V14.01,2013-05-15 05:10:00,
2013-05-15 01:16:00,55.6,28.4,0.00,SE,141,0.0,0.0,35,0.00,,---,0.00,VWS V14.01,2013-05-15 05:16:00,
2013-05-15 01:21:00,55.8,28.5,0.00,SE,142,0.0,0.0,35,0.00,,---,0.00,VWS V14.01,2013-05-15 05:21:00,
2013-05-15 01:27:00,55.8,28.5,0.00,SE,136,0.0,0.0,35,0.00,,---,0.00,VWS V14.01,2013-05-15 05:27:00,
2013-05-15 01:32:00,55.9,28.7,0.00,SE,136,0.0,0.0,35,0.00,,---,0.00,VWS V14.01,2013-05-15 05:32:00,
2013-05-15 01:37:00,55.9,28.7,0.00,SSE,153,0.0,0.0,35,0.00,,---,0.00,VWS V14.01,2013-05-15 05:37:00,
2013-05-15 01:43:00,55.9,28.7,0.00,SSE,158,0.0,0.0,35,0.00,,---,0.00,VWS V14.01,2013-05-15 05:43:00,
2013-05-15 01:48:00,55.9,28.7,0.00,SSE,158,0.0,0.0,35,0.00,,---,0.00,VWS V14.01,2013-05-15 05:48:00,
2013-05-15 01:54:00,55.8,28.5,0.00,SE,145,0.0,2.2,35,0.00,,---,0.00,VWS V14.01,2013-05-15 05:54:00,
2013-05-15 02:00:00,55.9,28.7,0.00,SSW,194,0.0,0.0,35,0.00,,---,0.00,VWS V14.01,2013-05-15 06:00:00,
2013-05-15 02:05:00,55.9,28.7,0.00,SSE,161,0.0,0.0,35,0.00,,---,0.00,VWS V14.01,2013-05-15 06:05:00,
2013-05-15 02:10:00,55.9,28.7,0.00,SSE,160,0.0,0.0,35,0.00,,---,0.00,VWS V14.01,2013-05-15 06:10:00,
2013-05-15 02:16:00,55.8,28.5,0.00,SSE,160,0.0,0.0,35,0.00,,---,0.00,VWS V14.01,2013-05-15 06:16:00,
2013-05-15 02:21:00,55.8,28.5,0.00,SE,133,0.0,0.0,35,0.00,,---,0.00,VWS V14.01,2013-05-15 06:21:00,
2013-05-15 02:27:00,55.8,28.5,0.00,SE,139,0.0,0.0,35,0.00,,---,0.00,VWS V14.01,2013-05-15 06:27:00,
2013-05-15 02:33:00,55.6,28.4,0.00,SE,139,0.0,0.0,35,0.00,,---,0.00,VWS V14.01,2013-05-15 06:33:00,
2013-05-15 02:38:00,55.4,28.2,0.00,SE,139,0.0,0.0,35,0.00,,---,0.00,VWS V14.01,2013-05-15 06:38:00,
2013-05-15 02:43:00,55.4,28.2,0.00,SE,139,0.0,0.0,35,0.00,,---,0.00,VWS V14.01,2013-05-15 06:43:00,
2013-05-15 02:49:00,55.2,28.8,0.00,SE,139,0.0,0.0,36,0.00,,---,0.00,VWS V14.01,2013-05-15 06:49:00,
2013-05-15 02:54:00,55.0,28.6,0.00,SE,139,0.0,0.0,36,0.00,,---,0.00,VWS V14.01,2013-05-15 06:54:00,
2013-05-15 02:59:00,54.7,28.3,0.00,SE,139,0.0,0.0,36,0.00,,---,0.00,VWS V14.01,2013-05-15 06:59:00,
2013-05-15 03:04:00,54.7,28.3,0.00,SE,139,0.0,0.0,36,0.00,,---,0.00,VWS V14.01,2013-05-15 07:04:00,
2013-05-15 03:10:00,54.5,28.1,0.00,SE,139,0.0,0.0,36,0.00,,---,0.00,VWS V14.01,2013-05-15 07:10:00,
2013-05-15 03:16:00,54.7,28.3,0.00,SE,139,0.0,0.0,36,0.00,,---,0.00,VWS V14.01,2013-05-15 07:16:00,
2013-05-15 03:21:00,54.7,28.3,0.00,SSE,164,0.0,0.0,36,0.00,,---,0.00,VWS V14.01,2013-05-15 07:21:00,
2013-05-15 03:26:00,54.5,28.1,0.00,SSE,164,0.0,0.0,36,0.00,,---,0.00,VWS V14.01,2013-05-15 07:26:00,
2013-05-15 03:32:00,54.3,28.0,0.00,SSE,164,0.0,0.0,36,0.00,,---,0.00,VWS V14.01,2013-05-15 07:32:00,
2013-05-15 03:37:00,54.0,27.6,0.00,SSE,164,0.0,0.0,36,0.00,,---,0.00,VWS V14.01,2013-05-15 07:37:00,
2013-05-15 03:43:00,53.8,27.5,0.00,SSE,164,0.0,0.0,36,0.00,,---,0.00,VWS V14.01,2013-05-15 07:43:00,
2013-05-15 03:49:00,53.4,27.1,0.00,SSE,164,0.0,0.0,36,0.00,,---,0.00,VWS V14.01,2013-05-15 07:49:00,
2013-05-15 03:54:00,53.2,27.0,0.00,SSE,164,0.0,0.0,36,0.00,,---,0.00,VWS V14.01,2013-05-15 07:54:00,
2013-05-15 04:00:00,53.4,27.1,0.00,SSE,164,0.0,0.0,36,0.00,,---,0.00,VWS V14.01,2013-05-15 08:00:00,
2013-05-15 04:05:00,53.6,27.3,0.00,SSE,164,0.0,0.0,36,0.00,,---,0.00,VWS V14.01,2013-05-15 08:05:00,
2013-05-15 04:11:00,53.4,27.1,0.00,SSE,164,0.0,0.0,36,0.00,,---,0.00,VWS V14.01,2013-05-15 08:11:00,
2013-05-15 04:16:00,53.4,27.1,0.00,SSE,164,0.0,0.0,36,0.00,,---,0.00,VWS V14.01,2013-05-15 08:16:00,
2013-05-15 04:21:00,53.2,27.0,0.00,SSE,164,0.0,0.0,36,0.00,,---,0.00,VWS V14.01,2013-05-15 08:21:00,
2013-05-15 04:26:00,53.1,26.8,0.00,SSE,164,0.0,0.0,36,0.00,,---,0.00,VWS V14.01,2013-05-15 08:26:00,
2013-05-15 04:31:00,53.1,26.8,0.00,SSE,164,0.0,0.0,36,0.00,,---,0.00,VWS V14.01,2013-05-15 08:31:00,
2013-05-15 04:36:00,53.1,26.8,0.00,SSE,164,0.0,0.0,36,0.00,,---,0.00,VWS V14.01,2013-05-15 08:36:00,
2013-05-15 04:42:00,53.1,26.8,0.00,SSE,164,0.0,0.0,36,0.00,,---,0.00,VWS V14.01,2013-05-15 08:42:00,
2013-05-15 04:48:00,53.2,27.0,0.00,SSE,164,0.0,0.0,36,0.00,,---,0.00,VWS V14.01,2013-05-15 08:48:00,
2013-05-15 04:54:00,53.4,27.1,0.00,SSE,164,0.0,0.0,36,0.00,,---,0.00,VWS V14.01,2013-05-15 08:54:00,
2013-05-15 04:59:00,53.2,27.0,0.00,SSE,164,0.0,0.0,36,0.00,,---,0.00,VWS V14.01,2013-05-15 08:59:00,
2013-05-15 05:04:00,53.1,26.8,0.00,SSE,164,0.0,0.0,36,0.00,,---,0.00,VWS V14.01,2013-05-15 09:04:00,
2013-05-15 05:09:00,52.5,26.4,0.00,SSE,164,0.0,0.0,36,0.00,,---,0.00,VWS V14.01,2013-05-15 09:09:00,
2013-05-15 05:15:00,52.2,26.0,0.00,SSE,164,0.0,0.0,36,0.00,,---,0.00,VWS V14.01,2013-05-15 09:15:00,
2013-05-15 05:20:00,52.0,25.9,0.00,SSE,164,0.0,0.0,36,0.00,,---,0.00,VWS V14.01,2013-05-15 09:20:00,
2013-05-15 05:25:00,52.0,25.9,0.00,NE,48,0.0,0.0,36,0.00,,---,0.00,VWS V14.01,2013-05-15 09:25:00,
2013-05-15 05:31:00,51.6,25.6,0.00,NE,48,0.0,0.0,36,0.00,,---,0.00,VWS V14.01,2013-05-15 09:31:00,
2013-05-15 05:37:00,51.6,25.6,0.00,NE,48,0.0,0.0,36,0.00,,---,0.00,VWS V14.01,2013-05-15 09:37:00,
2013-05-15 05:42:00,51.6,25.6,0.00,ENE,58,0.0,0.0,36,0.00,,---,0.00,VWS V14.01,2013-05-15 09:42:00,
2013-05-15 05:47:00,51.6,25.6,0.00,ENE,58,0.0,0.0,36,0.00,,---,0.00,VWS V14.01,2013-05-15 09:47:00,
2013-05-15 05:54:00,51.4,25.4,0.00,ENE,58,0.0,0.0,36,0.00,,---,0.00,VWS V14.01,2013-05-15 09:54:00,
2013-05-15 05:59:00,51.3,25.2,0.00,ENE,58,0.0,0.0,36,0.00,,---,0.00,VWS V14.01,2013-05-15 09:59:00,
2013-05-15 06:05:00,51.1,25.1,0.00,ENE,58,0.0,0.0,36,0.00,,---,0.00,VWS V14.01,2013-05-15 10:05:00,
2013-05-15 06:10:00,50.7,24.8,0.00,ENE,58,0.0,0.0,36,0.00,,---,0.00,VWS V14.01,2013-05-15 10:10:00,
2013-05-15 06:15:00,50.4,25.1,0.00,ENE,58,0.0,0.0,37,0.00,,---,0.00,VWS V14.01,2013-05-15 10:15:00,
2013-05-15 06:20:00,50.2,24.9,0.00,ENE,58,0.0,0.0,37,0.00,,---,0.00,VWS V14.01,2013-05-15 10:20:00,
2013-05-15 06:25:00,50.2,24.9,0.00,ENE,58,0.0,0.0,37,0.00,,---,0.00,VWS V14.01,2013-05-15 10:25:00,
2013-05-15 06:31:00,50.7,25.4,0.00,ENE,58,0.0,0.0,37,0.00,,---,0.00,VWS V14.01,2013-05-15 10:31:00,
2013-05-15 06:37:00,51.1,25.7,0.00,ENE,58,0.0,0.0,37,0.00,,---,0.00,VWS V14.01,2013-05-15 10:37:00,
2013-05-15 06:43:00,51.3,25.9,0.00,ENE,58,0.0,0.0,37,0.00,,---,0.00,VWS V14.01,2013-05-15 10:43:00,
2013-05-15 06:48:00,51.3,25.9,0.00,ENE,58,0.0,0.0,37,0.00,,---,0.00,VWS V14.01,2013-05-15 10:48:00,
2013-05-15 06:53:00,51.4,26.0,0.00,ENE,58,0.0,0.0,37,0.00,,---,0.00,VWS V14.01,2013-05-15 10:53:00,
2013-05-15 06:58:00,51.3,25.9,0.00,ENE,58,0.0,0.0,37,0.00,,---,0.00,VWS V14.01,2013-05-15 10:58:00,
2013-05-15 07:04:00,51.3,25.9,0.00,ENE,58,0.0,0.0,37,0.00,,---,0.00,VWS V14.01,2013-05-15 11:04:00,
2013-05-15 07:11:00,51.8,25.7,0.00,ENE,58,0.0,0.0,36,0.00,,---,0.00,VWS V14.01,2013-05-15 11:11:00,
2013-05-15 07:16:00,52.2,26.0,0.00,ENE,58,0.0,0.0,36,0.00,,---,0.00,VWS V14.01,2013-05-15 11:16:00,
2013-05-15 07:21:00,52.7,26.5,0.00,ENE,58,0.0,0.0,36,0.00,,---,0.00,VWS V14.01,2013-05-15 11:21:00,
2013-05-15 07:27:00,53.2,27.0,0.00,ENE,58,0.0,0.0,36,0.00,,---,0.00,VWS V14.01,2013-05-15 11:27:00,
2013-05-15 07:33:00,53.4,27.1,0.00,ENE,58,0.0,0.0,36,0.00,,---,0.00,VWS V14.01,2013-05-15 11:33:00,
2013-05-15 07:39:00,54.0,27.6,0.00,ENE,58,0.0,0.0,36,0.00,,---,0.00,VWS V14.01,2013-05-15 11:39:00,
2013-05-15 07:44:00,54.1,27.8,0.00,ENE,58,0.0,0.0,36,0.00,,---,0.00,VWS V14.01,2013-05-15 11:44:00,
2013-05-15 07:50:00,54.5,28.1,0.00,ENE,58,0.0,0.0,36,0.00,,---,0.00,VWS V14.01,2013-05-15 11:50:00,
2013-05-15 07:55:00,54.9,28.4,0.00,ENE,58,0.0,0.0,36,0.00,,---,0.00,VWS V14.01,2013-05-15 11:55:00,
2013-05-15 08:01:00,55.2,28.8,0.00,ENE,58,0.0,0.0,36,0.00,,---,0.00,VWS V14.01,2013-05-15 12:01:00,
2013-05-15 08:06:00,56.1,28.9,0.00,ENE,58,0.0,0.0,35,0.00,,---,0.00,VWS V14.01,2013-05-15 12:06:00,
2013-05-15 08:11:00,56.7,29.3,0.00,ENE,58,0.0,0.0,35,0.00,,---,0.00,VWS V14.01,2013-05-15 12:11:00,
2013-05-15 08:16:00,57.7,30.3,0.00,ENE,58,0.0,0.0,35,0.00,,---,0.00,VWS V14.01,2013-05-15 12:16:00,
2013-05-15 08:21:00,59.0,31.4,0.00,ENE,62,0.0,0.0,35,0.00,,---,0.00,VWS V14.01,2013-05-15 12:21:00,
2013-05-15 08:28:00,59.4,31.7,0.00,ENE,62,0.0,0.0,35,0.00,,---,0.00,VWS V14.01,2013-05-15 12:28:00,
2013-05-15 08:34:00,59.2,31.6,0.00,ENE,60,0.0,0.0,35,0.00,,---,0.00,VWS V14.01,2013-05-15 12:34:00,
2013-05-15 08:39:00,58.8,31.2,0.00,ENE,60,0.0,0.0,35,0.00,,---,0.00,VWS V14.01,2013-05-15 12:39:00,
2013-05-15 08:45:00,58.5,30.9,0.00,ENE,60,0.0,0.0,35,0.00,,---,0.00,VWS V14.01,2013-05-15 12:45:00,
2013-05-15 08:51:00,57.9,30.5,0.00,ENE,60,0.0,0.0,35,0.00,,---,0.00,VWS V14.01,2013-05-15 12:51:00,
2013-05-15 08:57:00,58.1,30.6,0.00,ENE,60,0.0,0.0,35,0.00,,---,0.00,VWS V14.01,2013-05-15 12:57:00,
2013-05-15 09:03:00,59.0,31.4,0.00,ENE,60,0.0,0.0,35,0.00,,---,0.00,VWS V14.01,2013-05-15 13:03:00,
2013-05-15 09:08:00,59.5,31.9,0.00,ENE,60,0.0,0.0,35,0.00,,---,0.00,VWS V14.01,2013-05-15 13:08:00,
2013-05-15 09:14:00,59.7,32.0,0.00,ENE,60,0.0,0.0,35,0.00,,---,0.00,VWS V14.01,2013-05-15 13:14:00,
2013-05-15 09:19:00,59.5,31.9,0.00,ENE,60,0.0,0.0,35,0.00,,---,0.00,VWS V14.01,2013-05-15 13:19:00,
2013-05-15 09:24:00,60.1,32.4,0.00,ENE,64,0.0,0.0,35,0.00,,---,0.00,VWS V14.01,2013-05-15 13:24:00,
2013-05-15 09:30:00,60.6,32.8,0.00,ENE,69,0.0,0.0,35,0.00,,---,0.00,VWS V14.01,2013-05-15 13:30:00,
2013-05-15 09:36:00,60.6,32.8,0.00,ENE,69,0.0,0.0,35,0.00,,---,0.00,VWS V14.01,2013-05-15 13:36:00,
2013-05-15 09:41:00,61.2,32.6,0.00,ENE,69,0.0,0.0,34,0.00,,---,0.00,VWS V14.01,2013-05-15 13:41:00,
2013-05-15 09:46:00,61.7,33.1,0.00,ENE,71,0.0,0.0,34,0.00,,---,0.00,VWS V14.01,2013-05-15 13:46:00,
2013-05-15 09:52:00,63.7,34.8,0.00,ESE,113,0.0,0.0,34,0.00,,---,0.00,VWS V14.01,2013-05-15 13:52:00,
2013-05-15 09:58:00,64.2,35.3,0.00,ESE,123,0.0,2.2,34,0.00,,---,0.00,VWS V14.01,2013-05-15 13:58:00,
2013-05-15 10:04:00,64.2,35.3,0.00,ESE,123,0.0,0.0,34,0.00,,---,0.00,VWS V14.01,2013-05-15 14:04:00,
2013-05-15 10:10:00,64.2,35.3,0.00,ESE,123,0.0,0.0,34,0.00,,---,0.00,VWS V14.01,2013-05-15 14:10:00,
2013-05-15 10:15:00,64.0,35.1,0.00,East,100,0.0,0.0,34,0.00,,---,0.00,VWS V14.01,2013-05-15 14:15:00,
2013-05-15 10:20:00,64.2,35.3,0.00,SE,135,0.0,0.0,34,0.00,,---,0.00,VWS V14.01,2013-05-15 14:20:00,
2013-05-15 10:25:00,64.8,35.0,0.00,SE,146,0.0,0.0,33,0.00,,---,0.00,VWS V14.01,2013-05-15 14:25:00,
2013-05-15 10:31:00,65.7,35.8,0.00,SE,144,0.0,0.0,33,0.00,,---,0.00,VWS V14.01,2013-05-15 14:31:00,
2013-05-15 10:36:00,66.2,36.3,0.00,SSE,149,0.0,0.0,33,0.00,,---,0.00,VWS V14.01,2013-05-15 14:36:00,
2013-05-15 10:42:00,67.1,37.1,0.00,ESE,115,2.2,2.2,33,0.00,,---,0.00,VWS V14.01,2013-05-15 14:42:00,
2013-05-15 10:48:00,67.1,37.1,0.00,SSE,163,0.0,0.0,33,0.00,,---,0.00,VWS V14.01,2013-05-15 14:48:00,
2013-05-15 10:53:00,66.9,36.9,0.00,SSE,164,0.0,0.0,33,0.00,,---,0.00,VWS V14.01,2013-05-15 14:53:00,
2013-05-15 10:58:00,66.4,36.4,0.00,SSE,164,0.0,0.0,33,0.00,,---,0.00,VWS V14.01,2013-05-15 14:58:00,
2013-05-15 11:04:00,66.6,36.6,0.00,SSE,164,0.0,0.0,33,0.00,,---,0.00,VWS V14.01,2013-05-15 15:04:00,
2013-05-15 11:09:00,66.9,36.9,0.00,SSE,164,0.0,0.0,33,0.00,,---,0.00,VWS V14.01,2013-05-15 15:09:00,
2013-05-15 11:15:00,67.8,37.7,0.00,SSE,148,0.0,0.0,33,0.00,,---,0.00,VWS V14.01,2013-05-15 15:15:00,
2013-05-15 11:21:00,68.7,38.5,0.00,SE,133,0.0,2.2,33,0.00,,---,0.00,VWS V14.01,2013-05-15 15:21:00,
2013-05-15 11:26:00,68.5,38.3,0.00,SSE,148,0.0,0.0,33,0.00,,---,0.00,VWS V14.01,2013-05-15 15:26:00,
2013-05-15 11:32:00,69.8,38.6,0.00,SSE,149,0.0,0.0,32,0.00,,---,0.00,VWS V14.01,2013-05-15 15:32:00,
2013-05-15 11:37:00,70.3,39.1,0.00,SSE,149,0.0,0.0,32,0.00,,---,0.00,VWS V14.01,2013-05-15 15:37:00,
2013-05-15 11:44:00,70.9,39.6,0.00,SE,134,3.6,3.6,32,0.00,,---,0.00,VWS V14.01,2013-05-15 15:44:00,
2013-05-15 11:54:00,72.1,40.7,0.00,ESE,122,0.0,0.0,32,0.00,,---,0.00,VWS V14.01,2013-05-15 15:54:00,
2013-05-15 12:00:00,73.6,41.1,0.00,South,181,0.0,0.0,31,0.00,,---,0.00,VWS V14.01,2013-05-15 16:00:00,
2013-05-15 12:05:00,74.8,42.2,0.00,SSE,164,0.0,0.0,31,0.00,,---,0.00,VWS V14.01,2013-05-15 16:05:00,
2013-05-15 12:10:00,74.3,41.7,0.00,South,185,0.0,0.0,31,0.00,,---,0.00,VWS V14.01,2013-05-15 16:10:00,
2013-05-15 12:15:00,73.4,41.0,0.00,South,186,0.0,0.0,31,0.00,,---,0.00,VWS V14.01,2013-05-15 16:15:00,
2013-05-15 12:21:00,73.4,41.0,0.00,SE,146,0.0,0.0,31,0.00,,---,0.00,VWS V14.01,2013-05-15 16:21:00,
2013-05-15 12:26:00,72.7,41.2,0.00,SE,146,0.0,0.0,32,0.00,,---,0.00,VWS V14.01,2013-05-15 16:26:00,
2013-05-15 12:32:00,71.6,40.2,0.00,SE,146,0.0,0.0,32,0.00,,---,0.00,VWS V14.01,2013-05-15 16:32:00,
2013-05-15 12:38:00,71.1,39.7,0.00,SE,146,0.0,0.0,32,0.00,,---,0.00,VWS V14.01,2013-05-15 16:38:00,
2013-05-15 12:44:00,70.9,39.6,0.00,SE,146,0.0,0.0,32,0.00,,---,0.00,VWS V14.01,2013-05-15 16:44:00,
2013-05-15 12:49:00,71.1,39.7,0.00,SE,146,0.0,0.0,32,0.00,,---,0.00,VWS V14.01,2013-05-15 16:49:00,
2013-05-15 12:54:00,71.6,40.2,0.00,SE,146,0.0,0.0,32,0.00,,---,0.00,VWS V14.01,2013-05-15 16:54:00,
2013-05-15 12:59:00,71.1,39.7,0.00,SE,141,0.0,0.0,32,0.00,,---,0.00,VWS V14.01,2013-05-15 16:59:00,
2013-05-15 13:05:00,70.0,38.8,0.00,North,357,0.0,0.0,32,0.00,,---,0.00,VWS V14.01,2013-05-15 17:05:00,
2013-05-15 13:10:00,70.2,39.0,0.00,NNE,15,0.0,0.0,32,0.00,,---,0.00,VWS V14.01,2013-05-15 17:10:00,
2013-05-15 13:15:00,71.2,39.9,0.00,NNW,348,0.0,0.0,32,0.00,,---,0.00,VWS V14.01,2013-05-15 17:15:00,
2013-05-15 13:20:00,71.8,40.4,0.00,NNW,331,0.0,0.0,32,0.00,,---,0.00,VWS V14.01,2013-05-15 17:20:00,
2013-05-15 13:26:00,72.7,41.2,0.00,South,179,2.2,2.7,32,0.00,,---,0.00,VWS V14.01,2013-05-15 17:26:00,
2013-05-15 13:32:00,72.7,41.2,0.00,NNW,341,0.0,0.0,32,0.00,,---,0.00,VWS V14.01,2013-05-15 17:32:00,
2013-05-15 13:38:00,72.9,41.3,0.00,North,353,0.0,0.0,32,0.00,,---,0.00,VWS V14.01,2013-05-15 17:38:00,
2013-05-15 13:44:00,72.9,41.3,0.00,NNW,333,0.0,0.0,32,0.00,,---,0.00,VWS V14.01,2013-05-15 17:44:00,
2013-05-15 13:50:00,72.7,41.2,0.00,South,176,0.0,0.0,32,0.00,,---,0.00,VWS V14.01,2013-05-15 17:50:00,
2013-05-15 13:56:00,73.2,41.6,0.00,South,171,0.0,0.0,32,0.00,,---,0.00,VWS V14.01,2013-05-15 17:56:00,
2013-05-15 14:02:00,73.9,41.4,0.00,SE,128,0.0,0.0,31,0.00,,---,0.00,VWS V14.01,2013-05-15 18:02:00,
2013-05-15 14:07:00,74.7,42.0,0.00,SSE,153,0.0,0.0,31,0.00,,---,0.00,VWS V14.01,2013-05-15 18:07:00,
2013-05-15 14:12:00,75.2,42.5,0.00,SE,138,0.0,0.0,31,0.00,,---,0.00,VWS V14.01,2013-05-15 18:12:00,
2013-05-15 14:19:00,76.5,43.6,0.00,SSE,160,0.0,0.0,31,0.00,,---,0.00,VWS V14.01,2013-05-15 18:19:00,
2013-05-15 14:25:00,76.8,43.9,0.00,SSE,159,0.0,0.0,31,0.00,,---,0.00,VWS V14.01,2013-05-15 18:25:00,
2013-05-15 14:30:00,77.2,44.2,0.00,SSE,159,0.0,0.0,31,0.00,,---,0.00,VWS V14.01,2013-05-15 18:30:00,
2013-05-15 14:35:00,77.5,44.5,0.00,SSE,158,0.0,0.0,31,0.00,,---,0.00,VWS V14.01,2013-05-15 18:35:00,
2013-05-15 14:41:00,77.5,44.5,0.00,SE,132,2.2,2.2,31,0.00,,---,0.00,VWS V14.01,2013-05-15 18:41:00,
2013-05-15 14:46:00,77.2,44.2,0.00,NW,314,2.2,2.2,31,0.00,,---,0.00,VWS V14.01,2013-05-15 18:46:00,
2013-05-15 14:52:00,77.0,44.1,0.00,SSW,209,0.0,2.2,31,0.00,,---,0.00,VWS V14.01,2013-05-15 18:52:00,
2013-05-15 14:57:00,77.0,44.1,0.00,SSE,164,0.0,0.0,31,0.00,,---,0.00,VWS V14.01,2013-05-15 18:57:00,
2013-05-15 15:02:00,76.8,43.9,0.00,SSE,154,2.2,2.7,31,0.00,,---,0.00,VWS V14.01,2013-05-15 19:02:00,
2013-05-15 15:07:00,77.0,44.1,0.00,SSE,163,0.0,2.2,31,0.00,,---,0.00,VWS V14.01,2013-05-15 19:07:00,
2013-05-15 15:13:00,77.0,44.1,0.00,SSW,209,2.7,3.6,31,0.00,,---,0.00,VWS V14.01,2013-05-15 19:13:00,
2013-05-15 15:18:00,77.2,44.2,0.00,SSE,161,0.0,0.0,31,0.00,,---,0.00,VWS V14.01,2013-05-15 19:18:00,
2013-05-15 15:23:00,77.5,44.5,0.00,SSE,153,3.1,3.1,31,0.00,,---,0.00,VWS V14.01,2013-05-15 19:23:00,
2013-05-15 15:29:00,77.9,44.9,0.00,SSE,161,0.0,0.0,31,0.00,,---,0.00,VWS V14.01,2013-05-15 19:29:00,
2013-05-15 15:34:00,77.9,44.9,0.00,SSE,157,2.7,2.7,31,0.00,,---,0.00,VWS V14.01,2013-05-15 19:34:00,
2013-05-15 15:40:00,77.7,44.7,0.00,SSE,149,2.2,3.1,31,0.00,,---,0.00,VWS V14.01,2013-05-15 19:40:00,
2013-05-15 15:45:00,77.7,44.7,0.00,SSE,167,0.0,3.6,31,0.00,,---,0.00,VWS V14.01,2013-05-15 19:45:00,
2013-05-15 15:50:00,77.7,44.7,0.00,SSE,148,0.0,0.0,31,0.00,,---,0.00,VWS V14.01,2013-05-15 19:50:00,
2013-05-15 15:57:00,77.5,44.5,0.00,SE,141,0.0,0.0,31,0.00,,---,0.00,VWS V14.01,2013-05-15 19:57:00,
2013-05-15 16:02:00,77.5,44.5,0.00,SSE,154,2.2,2.7,31,0.00,,---,0.00,VWS V14.01,2013-05-15 20:02:00,
2013-05-15 16:07:00,77.5,44.5,0.00,SSE,157,0.0,2.2,31,0.00,,---,0.00,VWS V14.01,2013-05-15 20:07:00,
2013-05-15 16:13:00,77.7,44.7,0.00,WSW,248,2.7,2.7,31,0.00,,---,0.00,VWS V14.01,2013-05-15 20:13:00,
2013-05-15 16:18:00,77.9,44.9,0.00,WSW,251,2.2,2.2,31,0.00,,---,0.00,VWS V14.01,2013-05-15 20:18:00,
2013-05-15 16:25:00,77.7,44.7,0.00,SSE,149,0.0,3.1,31,0.00,,---,0.00,VWS V14.01,2013-05-15 20:25:00,
2013-05-15 16:31:00,77.9,44.9,0.00,East,89,0.0,0.0,31,0.00,,---,0.00,VWS V14.01,2013-05-15 20:31:00,
2013-05-15 16:37:00,77.9,44.9,0.00,SE,141,0.0,0.0,31,0.00,,---,0.00,VWS V14.01,2013-05-15 20:37:00,
2013-05-15 16:42:00,78.1,45.0,0.00,SSE,147,0.0,3.1,31,0.00,,---,0.00,VWS V14.01,2013-05-15 20:42:00,
2013-05-15 16:48:00,78.3,45.2,0.00,SSE,167,0.0,0.0,31,0.00,,---,0.00,VWS V14.01,2013-05-15 20:48:00,
2013-05-15 16:55:00,78.4,45.3,0.00,SSE,157,2.2,2.2,31,0.00,,---,0.00,VWS V14.01,2013-05-15 20:55:00,
2013-05-15 17:00:00,78.6,45.5,0.00,North,0,0.0,0.0,31,0.00,,---,0.00,VWS V14.01,2013-05-15 21:00:00,
2013-05-15 17:05:00,79.0,44.9,0.00,North,0,0.0,0.0,30,0.00,,---,0.00,VWS V14.01,2013-05-15 21:05:00,
2013-05-15 17:10:00,79.0,44.9,0.00,NW,304,0.0,0.0,30,0.00,,---,0.00,VWS V14.01,2013-05-15 21:10:00,
2013-05-15 17:15:00,78.8,44.8,0.00,NW,309,0.0,0.0,30,0.00,,---,0.00,VWS V14.01,2013-05-15 21:15:00,
2013-05-15 17:21:00,78.8,44.8,0.00,NW,308,0.0,0.0,30,0.00,,---,0.00,VWS V14.01,2013-05-15 21:21:00,
2013-05-15 17:27:00,78.8,44.8,0.00,ESE,102,0.0,0.0,30,0.00,,---,0.00,VWS V14.01,2013-05-15 21:27:00,
2013-05-15 17:34:00,78.8,44.8,0.00,ESE,116,0.0,0.0,30,0.00,,---,0.00,VWS V14.01,2013-05-15 21:34:00,
2013-05-15 17:39:00,79.0,44.9,0.00,ESE,113,0.0,0.0,30,0.00,,---,0.00,VWS V14.01,2013-05-15 21:39:00,
2013-05-15 17:44:00,79.0,44.9,0.00,ESE,113,0.0,0.0,30,0.00,,---,0.00,VWS V14.01,2013-05-15 21:44:00,
2013-05-15 17:51:00,79.3,45.2,0.00,SE,129,0.0,0.0,30,0.00,,---,0.00,VWS V14.01,2013-05-15 21:51:00,
2013-05-15 17:57:00,79.5,45.4,0.00,SE,129,0.0,0.0,30,0.00,,---,0.00,VWS V14.01,2013-05-15 21:57:00,
2013-05-15 18:03:00,79.3,45.2,0.00,SE,129,0.0,0.0,30,0.00,,---,0.00,VWS V14.01,2013-05-15 22:03:00,
2013-05-15 18:10:00,79.3,45.2,0.00,SE,129,0.0,0.0,30,0.00,,---,0.00,VWS V14.01,2013-05-15 22:10:00,
2013-05-15 18:15:00,79.9,45.7,0.00,ENE,77,0.0,0.0,30,0.00,,---,0.00,VWS V14.01,2013-05-15 22:15:00,
2013-05-15 18:20:00,79.9,45.7,0.00,SSE,167,0.0,0.0,30,0.00,,---,0.00,VWS V14.01,2013-05-15 22:20:00,
2013-05-15 18:26:00,80.1,45.9,0.00,North,357,0.0,0.0,30,0.00,,---,0.00,VWS V14.01,2013-05-15 22:26:00,
2013-05-15 18:32:00,80.1,45.9,0.00,North,357,0.0,0.0,30,0.00,,---,0.00,VWS V14.01,2013-05-15 22:32:00,
2013-05-15 18:38:00,79.7,45.6,0.00,North,0,0.0,0.0,30,0.00,,---,0.00,VWS V14.01,2013-05-15 22:38:00,
2013-05-15 18:44:00,79.9,45.7,0.00,North,357,0.0,0.0,30,0.00,,---,0.00,VWS V14.01,2013-05-15 22:44:00,
2013-05-15 18:49:00,80.2,46.0,0.00,NNE,20,0.0,0.0,30,0.00,,---,0.00,VWS V14.01,2013-05-15 22:49:00,
2013-05-15 18:55:00,79.7,45.6,0.00,NNE,20,0.0,0.0,30,0.00,,---,0.00,VWS V14.01,2013-05-15 22:55:00,
2013-05-15 19:00:00,79.2,45.1,0.00,NNE,20,0.0,0.0,30,0.00,,---,0.00,VWS V14.01,2013-05-15 23:00:00,
2013-05-15 19:05:00,78.8,44.8,0.00,NNE,20,0.0,0.0,30,0.00,,---,0.00,VWS V14.01,2013-05-15 23:05:00,
2013-05-15 19:12:00,78.1,45.0,0.00,NNE,20,0.0,0.0,31,0.00,,---,0.00,VWS V14.01,2013-05-15 23:12:00,
2013-05-15 19:18:00,77.5,44.5,0.00,NNE,20,0.0,0.0,31,0.00,,---,0.00,VWS V14.01,2013-05-15 23:18:00,
2013-05-15 19:24:00,77.2,44.2,0.00,NNE,20,0.0,0.0,31,0.00,,---,0.00,VWS V14.01,2013-05-15 23:24:00,
2013-05-15 19:29:00,76.8,43.9,0.00,NNE,20,0.0,0.0,31,0.00,,---,0.00,VWS V14.01,2013-05-15 23:29:00,
2013-05-15 19:36:00,76.1,43.3,0.00,NNE,20,0.0,0.0,31,0.00,,---,0.00,VWS V14.01,2013-05-15 23:36:00,
2013-05-15 19:44:00,75.2,42.5,0.00,NNE,20,0.0,0.0,31,0.00,,---,0.00,VWS V14.01,2013-05-15 23:44:00,
2013-05-15 19:50:00,74.7,42.0,0.00,NNE,20,0.0,0.0,31,0.00,,---,0.00,VWS V14.01,2013-05-15 23:50:00,
2013-05-15 19:56:00,74.3,41.7,0.00,NNE,20,0.0,0.0,31,0.00,,---,0.00,VWS V14.01,2013-05-15 23:56:00,
2013-05-15 20:02:00,74.1,41.6,0.00,SE,146,0.0,2.2,31,0.00,,---,0.00,VWS V14.01,2013-05-16 00:02:00,
2013-05-15 20:09:00,73.9,41.4,0.00,SE,146,0.0,0.0,31,0.00,,---,0.00,VWS V14.01,2013-05-16 00:09:00,
2013-05-15 20:14:00,73.6,41.1,0.00,SE,146,0.0,0.0,31,0.00,,---,0.00,VWS V14.01,2013-05-16 00:14:00,
2013-05-15 20:19:00,73.2,41.6,0.00,SE,146,0.0,0.0,32,0.00,,---,0.00,VWS V14.01,2013-05-16 00:19:00,
2013-05-15 20:25:00,72.7,41.2,0.00,SE,146,0.0,0.0,32,0.00,,---,0.00,VWS V14.01,2013-05-16 00:25:00,
2013-05-15 20:31:00,72.3,40.8,0.00,SE,146,0.0,0.0,32,0.00,,---,0.00,VWS V14.01,2013-05-16 00:31:00,
2013-05-15 20:36:00,72.0,40.5,0.00,SE,146,0.0,0.0,32,0.00,,---,0.00,VWS V14.01,2013-05-16 00:36:00,
2013-05-15 20:43:00,71.4,40.0,0.00,SE,146,0.0,0.0,32,0.00,,---,0.00,VWS V14.01,2013-05-16 00:43:00,
2013-05-15 20:49:00,71.2,39.9,0.00,SE,146,0.0,0.0,32,0.00,,---,0.00,VWS V14.01,2013-05-16 00:49:00,
2013-05-15 20:54:00,71.1,39.7,0.00,SE,146,0.0,0.0,32,0.00,,---,0.00,VWS V14.01,2013-05-16 00:54:00,
2013-05-15 20:59:00,71.1,39.7,0.00,SE,146,0.0,0.0,32,0.00,,---,0.00,VWS V14.01,2013-05-16 00:59:00,
2013-05-15 21:04:00,71.1,39.7,0.00,SE,146,0.0,0.0,32,0.00,,---,0.00,VWS V14.01,2013-05-16 01:04:00,
2013-05-15 21:10:00,70.9,39.6,0.00,SE,146,0.0,0.0,32,0.00,,---,0.00,VWS V14.01,2013-05-16 01:10:00,
2013-05-15 21:16:00,70.9,39.6,0.00,SE,146,0.0,0.0,32,0.00,,---,0.00,VWS V14.01,2013-05-16 01:16:00,
2013-05-15 21:22:00,70.7,39.4,0.00,SE,146,0.0,0.0,32,0.00,,---,0.00,VWS V14.01,2013-05-16 01:22:00,
2013-05-15 21:27:00,70.5,39.3,0.00,SE,146,0.0,0.0,32,0.00,,---,0.00,VWS V14.01,2013-05-16 01:27:00,
2013-05-15 21:32:00,70.5,39.3,0.00,SE,146,0.0,0.0,32,0.00,,---,0.00,VWS V14.01,2013-05-16 01:32:00,
2013-05-15 21:40:00,70.3,39.1,0.00,SE,146,0.0,0.0,32,0.00,,---,0.00,VWS V14.01,2013-05-16 01:40:00,
2013-05-15 21:46:00,70.3,39.1,0.00,SE,146,0.0,0.0,32,0.00,,---,0.00,VWS V14.01,2013-05-16 01:46:00,
2013-05-15 21:52:00,70.3,39.1,0.00,SE,146,0.0,0.0,32,0.00,,---,0.00,VWS V14.01,2013-05-16 01:52:00,
2013-05-15 21:58:00,70.5,39.3,0.00,SE,146,0.0,0.0,32,0.00,,---,0.00,VWS V14.01,2013-05-16 01:58:00,
2013-05-15 22:04:00,70.5,39.3,0.00,SE,146,0.0,0.0,32,0.00,,---,0.00,VWS V14.01,2013-05-16 02:04:00,
2013-05-15 22:10:00,70.3,39.1,0.00,SE,146,0.0,0.0,32,0.00,,---,0.00,VWS V14.01,2013-05-16 02:10:00,
2013-05-15 22:16:00,70.0,38.8,0.00,SE,146,0.0,0.0,32,0.00,,---,0.00,VWS V14.01,2013-05-16 02:16:00,
2013-05-15 22:21:00,69.6,39.3,0.00,SE,146,0.0,0.0,33,0.00,,---,0.00,VWS V14.01,2013-05-16 02:21:00,
2013-05-15 22:28:00,69.3,39.0,0.00,SE,146,0.0,0.0,33,0.00,,---,0.00,VWS V14.01,2013-05-16 02:28:00,
2013-05-15 22:34:00,68.9,38.6,0.00,SE,146,0.0,0.0,33,0.00,,---,0.00,VWS V14.01,2013-05-16 02:34:00,
2013-05-15 22:40:00,68.5,38.3,0.00,SE,146,0.0,0.0,33,0.00,,---,0.00,VWS V14.01,2013-05-16 02:40:00,
2013-05-15 22:46:00,68.4,38.2,0.00,SE,146,0.0,0.0,33,0.00,,---,0.00,VWS V14.01,2013-05-16 02:46:00,
2013-05-15 22:52:00,68.0,37.8,0.00,SE,146,0.0,0.0,33,0.00,,---,0.00,VWS V14.01,2013-05-16 02:52:00,
2013-05-15 22:57:00,67.6,37.5,0.00,SE,146,0.0,0.0,33,0.00,,---,0.00,VWS V14.01,2013-05-16 02:57:00,
2013-05-15 23:04:00,67.5,37.4,0.00,SE,146,0.0,0.0,33,0.00,,---,0.00,VWS V14.01,2013-05-16 03:04:00,
2013-05-15 23:10:00,67.3,37.2,0.00,SE,146,0.0,0.0,33,0.00,,---,0.00,VWS V14.01,2013-05-16 03:10:00,
2013-05-15 23:16:00,67.3,37.2,0.00,SE,146,0.0,0.0,33,0.00,,---,0.00,VWS V14.01,2013-05-16 03:16:00,
2013-05-15 23:21:00,67.1,37.1,0.00,SE,146,0.0,0.0,33,0.00,,---,0.00,VWS V14.01,2013-05-16 03:21:00,
2013-05-15 23:26:00,66.9,36.9,0.00,SE,146,0.0,0.0,33,0.00,,---,0.00,VWS V14.01,2013-05-16 03:26:00,
2013-05-15 23:32:00,66.7,36.8,0.00,SE,146,0.0,0.0,33,0.00,,---,0.00,VWS V14.01,2013-05-16 03:32:00,
2013-05-15 23:37:00,66.4,36.4,0.00,SE,146,0.0,0.0,33,0.00,,---,0.00,VWS V14.01,2013-05-16 03:37:00,
2013-05-15 23:43:00,66.2,36.3,0.00,SE,146,0.0,0.0,33,0.00,,---,0.00,VWS V14.01,2013-05-16 03:43:00,
2013-05-15 23:49:00,66.0,36.1,0.00,SE,146,0.0,0.0,33,0.00,,---,0.00,VWS V14.01,2013-05-16 03:49:00,
2013-05-15 23:55:00,65.8,36.7,0.00,SE,146,0.0,0.0,34,0.00,,---,0.00,VWS V14.01,2013-05-16 03:55:00,